sensor_id;sensor_type;location;lat;lon;timestamp;temperature;humidity
1165;DHT22;571;50.930;6.926;2023-07-29T02:57:58;20.50;99.90
1165;DHT22;571;50.930;6.926;2023-07-29T03:17:56;20.50;99.90
1165;DHT22;571;50.930;6.926;2023-07-29T03:29:11;20.40;99.90
1165;DHT22;571;50.930;6.926;2023-07-29T03:42:16;20.40;99.90
1165;DHT22;571;50.930;6.926;2023-07-29T04:02:08;20.40;99.90
1165;DHT22;571;50.930;6.926;2023-07-29T05:22:06;20.40;99.90
1165;DHT22;571;50.930;6.926;2023-07-29T05:24:33;20.50;99.90
1165;DHT22;571;50.930;6.926;2023-07-29T05:46:53;20.50;99.90
1165;DHT22;571;50.930;6.926;2023-07-29T06:06:38;20.60;99.90
1165;DHT22;571;50.930;6.926;2023-07-29T07:02:39;21.00;99.90
1165;DHT22;571;50.930;6.926;2023-07-29T07:05:46;21.10;99.90
1165;DHT22;571;50.930;6.926;2023-07-29T07:08:47;21.10;99.90
1165;DHT22;571;50.930;6.926;2023-07-29T07:11:51;21.20;99.90
1165;DHT22;571;50.930;6.926;2023-07-29T07:14:59;21.30;99.90
1165;DHT22;571;50.930;6.926;2023-07-29T07:17:52;21.30;99.90
1165;DHT22;571;50.930;6.926;2023-07-29T07:20:51;21.40;99.90
1165;DHT22;571;50.930;6.926;2023-07-29T07:23:51;21.50;99.90
1165;DHT22;571;50.930;6.926;2023-07-29T07:26:45;21.50;99.90
1165;DHT22;571;50.930;6.926;2023-07-29T07:29:56;21.50;99.90
1165;DHT22;571;50.930;6.926;2023-07-29T07:32:42;21.50;99.90
1165;DHT22;571;50.930;6.926;2023-07-29T07:35:58;21.50;99.90
1165;DHT22;571;50.930;6.926;2023-07-29T07:42:44;21.60;99.90
1165;DHT22;571;50.930;6.926;2023-07-29T07:45:25;21.70;99.90
1165;DHT22;571;50.930;6.926;2023-07-29T07:48:31;21.80;99.90
1165;DHT22;571;50.930;6.926;2023-07-29T07:51:23;21.70;99.90
1165;DHT22;571;50.930;6.926;2023-07-29T07:57:20;21.80;99.90
1165;DHT22;571;50.930;6.926;2023-07-29T08:00:10;21.80;99.90
1165;DHT22;571;50.930;6.926;2023-07-29T08:03:01;21.80;99.90
1165;DHT22;571;50.930;6.926;2023-07-29T08:11:31;21.80;99.90
1165;DHT22;571;50.930;6.926;2023-07-29T08:14:05;21.70;99.90
1165;DHT22;571;50.930;6.926;2023-07-29T08:16:53;21.70;99.90
1165;DHT22;571;50.930;6.926;2023-07-29T08:19:59;21.80;99.90
1165;DHT22;571;50.930;6.926;2023-07-29T08:25:43;21.90;99.90
1165;DHT22;571;50.930;6.926;2023-07-29T08:28:23;21.90;99.90
1165;DHT22;571;50.930;6.926;2023-07-29T08:31:12;22.00;99.90
1165;DHT22;571;50.930;6.926;2023-07-29T08:37:03;22.20;99.90
1165;DHT22;571;50.930;6.926;2023-07-29T08:39:53;22.30;99.90
1165;DHT22;571;50.930;6.926;2023-07-29T08:42:53;22.30;99.90
1165;DHT22;571;50.930;6.926;2023-07-29T08:45:47;22.40;99.90
1165;DHT22;571;50.930;6.926;2023-07-29T11:35:25;23.50;99.10
1165;DHT22;571;50.930;6.926;2023-07-29T11:38:52;23.60;99.40
1165;DHT22;571;50.930;6.926;2023-07-29T11:41:33;23.80;98.80
1165;DHT22;571;50.930;6.926;2023-07-29T11:44:25;24.10;98.90
1165;DHT22;571;50.930;6.926;2023-07-29T11:47:04;24.40;98.50
1165;DHT22;571;50.930;6.926;2023-07-29T11:49:49;24.70;98.30
1165;DHT22;571;50.930;6.926;2023-07-29T11:56:30;25.30;95.90
1165;DHT22;571;50.930;6.926;2023-07-29T11:59:44;25.60;95.40
1165;DHT22;571;50.930;6.926;2023-07-29T12:02:21;25.80;94.90
1165;DHT22;571;50.930;6.926;2023-07-29T12:04:54;25.80;94.40
1165;DHT22;571;50.930;6.926;2023-07-29T12:10:28;26.00;94.50
1165;DHT22;571;50.930;6.926;2023-07-29T12:13:23;26.10;93.10
1165;DHT22;571;50.930;6.926;2023-07-29T12:16:08;26.40;93.50
1165;DHT22;571;50.930;6.926;2023-07-29T12:18:56;26.70;94.10
1165;DHT22;571;50.930;6.926;2023-07-29T12:21:53;27.00;92.60
1165;DHT22;571;50.930;6.926;2023-07-29T12:24:44;27.30;92.80
1165;DHT22;571;50.930;6.926;2023-07-29T12:27:24;27.70;92.30
1165;DHT22;571;50.930;6.926;2023-07-29T12:30:01;28.00;92.80
1165;DHT22;571;50.930;6.926;2023-07-29T12:32:52;28.30;91.20
1165;DHT22;571;50.930;6.926;2023-07-29T12:35:44;28.60;88.10
1165;DHT22;571;50.930;6.926;2023-07-29T12:38:33;28.70;87.60
1165;DHT22;571;50.930;6.926;2023-07-29T12:41:34;28.90;90.70
1165;DHT22;571;50.930;6.926;2023-07-29T12:44:06;29.00;85.50
1165;DHT22;571;50.930;6.926;2023-07-29T12:47:00;29.30;86.20
1165;DHT22;571;50.930;6.926;2023-07-29T12:49:32;29.60;78.90
1165;DHT22;571;50.930;6.926;2023-07-29T12:58:23;29.30;74.80
1165;DHT22;571;50.930;6.926;2023-07-29T13:01:39;28.90;77.40
1165;DHT22;571;50.930;6.926;2023-07-29T13:04:31;28.50;78.90
1165;DHT22;571;50.930;6.926;2023-07-29T13:07:01;28.20;79.60
1165;DHT22;571;50.930;6.926;2023-07-29T13:09:56;27.90;82.50
1165;DHT22;571;50.930;6.926;2023-07-29T13:13:07;27.70;83.50
1165;DHT22;571;50.930;6.926;2023-07-29T13:16:10;27.50;85.30
1165;DHT22;571;50.930;6.926;2023-07-29T13:18:59;27.30;86.70
1165;DHT22;571;50.930;6.926;2023-07-29T13:28:14;26.60;90.00
1165;DHT22;571;50.930;6.926;2023-07-29T13:35:02;26.20;90.40
1165;DHT22;571;50.930;6.926;2023-07-29T13:44:51;25.40;95.90
1165;DHT22;571;50.930;6.926;2023-07-29T13:48:02;25.20;96.90
1165;DHT22;571;50.930;6.926;2023-07-29T13:50:35;25.00;97.80
1165;DHT22;571;50.930;6.926;2023-07-29T13:53:26;24.80;98.30
1165;DHT22;571;50.930;6.926;2023-07-29T13:56:06;24.70;99.10
1165;DHT22;571;50.930;6.926;2023-07-29T13:58:45;24.60;99.90
1165;DHT22;571;50.930;6.926;2023-07-29T14:01:18;24.50;99.90
1165;DHT22;571;50.930;6.926;2023-07-29T14:07:29;24.30;99.90
1165;DHT22;571;50.930;6.926;2023-07-29T14:10:15;24.30;99.90
1165;DHT22;571;50.930;6.926;2023-07-29T14:16:55;24.30;99.90
1165;DHT22;571;50.930;6.926;2023-07-29T14:19:39;24.30;99.90
1165;DHT22;571;50.930;6.926;2023-07-29T14:25:56;24.30;99.90
1165;DHT22;571;50.930;6.926;2023-07-29T14:28:54;24.80;99.90
1165;DHT22;571;50.930;6.926;2023-07-29T14:31:28;25.40;99.90
1165;DHT22;571;50.930;6.926;2023-07-29T14:37:57;26.20;99.40
1165;DHT22;571;50.930;6.926;2023-07-29T14:44:30;26.50;96.50
1165;DHT22;571;50.930;6.926;2023-07-29T14:47:05;26.40;96.60
1165;DHT22;571;50.930;6.926;2023-07-29T14:49:54;26.20;95.70
1165;DHT22;571;50.930;6.926;2023-07-29T14:52:50;26.10;96.60
1165;DHT22;571;50.930;6.926;2023-07-29T14:55:49;25.90;97.40
1165;DHT22;571;50.930;6.926;2023-07-29T14:58:21;25.80;97.90
1165;DHT22;571;50.930;6.926;2023-07-29T15:18:48;25.10;97.60
1165;DHT22;571;50.930;6.926;2023-07-29T15:22:20;25.10;98.60
1165;DHT22;571;50.930;6.926;2023-07-29T15:34:36;28.30;92.90
1165;DHT22;571;50.930;6.926;2023-07-29T15:37:18;28.50;91.20
1165;DHT22;571;50.930;6.926;2023-07-29T15:40:06;28.40;89.50
1165;DHT22;571;50.930;6.926;2023-07-29T15:42:45;28.30;89.50
1165;DHT22;571;50.930;6.926;2023-07-29T15:45:35;27.90;90.00
1165;DHT22;571;50.930;6.926;2023-07-29T15:48:28;27.60;90.60
1165;DHT22;571;50.930;6.926;2023-07-29T15:51:02;27.20;91.40
1165;DHT22;571;50.930;6.926;2023-07-29T15:53:42;26.90;93.00
1165;DHT22;571;50.930;6.926;2023-07-29T15:56:36;26.60;93.60
1165;DHT22;571;50.930;6.926;2023-07-29T15:59:27;26.30;94.10
1165;DHT22;571;50.930;6.926;2023-07-29T16:02:07;26.20;94.40
1165;DHT22;571;50.930;6.926;2023-07-29T16:11:49;25.60;95.70
1165;DHT22;571;50.930;6.926;2023-07-29T16:15:29;25.40;95.50
1165;DHT22;571;50.930;6.926;2023-07-29T16:22:06;25.10;97.30
1165;DHT22;571;50.930;6.926;2023-07-29T16:24:51;25.00;97.30
1165;DHT22;571;50.930;6.926;2023-07-29T16:27:25;25.00;98.40
1165;DHT22;571;50.930;6.926;2023-07-29T16:30:03;25.00;99.40
1165;DHT22;571;50.930;6.926;2023-07-29T16:32:36;25.20;99.90
1165;DHT22;571;50.930;6.926;2023-07-29T16:35:19;25.80;98.60
1165;DHT22;571;50.930;6.926;2023-07-29T16:38:25;26.60;98.60
1165;DHT22;571;50.930;6.926;2023-07-29T16:41:08;27.60;95.30
1165;DHT22;571;50.930;6.926;2023-07-29T16:44:01;28.50;94.00
1165;DHT22;571;50.930;6.926;2023-07-29T16:46:55;29.30;92.20
1165;DHT22;571;50.930;6.926;2023-07-29T16:52:56;30.60;85.30
1165;DHT22;571;50.930;6.926;2023-07-29T16:55:47;30.50;84.40
1165;DHT22;571;50.930;6.926;2023-07-29T16:58:48;30.00;85.80
1165;DHT22;571;50.930;6.926;2023-07-29T17:01:30;29.40;88.00
1165;DHT22;571;50.930;6.926;2023-07-29T17:04:05;28.80;89.60
1165;DHT22;571;50.930;6.926;2023-07-29T17:06:48;28.30;90.70
1165;DHT22;571;50.930;6.926;2023-07-29T17:09:52;27.80;92.10
1165;DHT22;571;50.930;6.926;2023-07-29T17:18:55;26.80;95.20
1165;DHT22;571;50.930;6.926;2023-07-29T17:21:46;26.50;95.20
1165;DHT22;571;50.930;6.926;2023-07-29T17:24:48;26.30;95.70
1165;DHT22;571;50.930;6.926;2023-07-29T17:27:46;26.10;96.40
1165;DHT22;571;50.930;6.926;2023-07-29T17:30:33;26.00;96.60
1165;DHT22;571;50.930;6.926;2023-07-29T17:33:27;25.80;97.10
1165;DHT22;571;50.930;6.926;2023-07-29T17:36:10;25.60;98.00
1165;DHT22;571;50.930;6.926;2023-07-29T17:38:44;25.50;98.30
1165;DHT22;571;50.930;6.926;2023-07-29T17:44:10;25.40;98.40
1165;DHT22;571;50.930;6.926;2023-07-29T17:44:53;25.20;99.00
1165;DHT22;571;50.930;6.926;2023-07-29T17:47:55;25.10;99.40
1165;DHT22;571;50.930;6.926;2023-07-29T17:58:05;24.70;99.50
1165;DHT22;571;50.930;6.926;2023-07-29T18:01:01;24.60;99.90
1165;DHT22;571;50.930;6.926;2023-07-29T18:07:06;24.40;99.90
1165;DHT22;571;50.930;6.926;2023-07-29T18:09:49;24.30;99.90
1165;DHT22;571;50.930;6.926;2023-07-29T18:12:43;24.20;99.90
1165;DHT22;571;50.930;6.926;2023-07-29T18:15:20;24.10;99.90
1165;DHT22;571;50.930;6.926;2023-07-29T18:18:10;24.10;99.90
1165;DHT22;571;50.930;6.926;2023-07-29T18:21:42;23.90;99.90
1165;DHT22;571;50.930;6.926;2023-07-29T18:31:11;23.60;99.90
1165;DHT22;571;50.930;6.926;2023-07-29T18:37:39;23.50;99.90
1165;DHT22;571;50.930;6.926;2023-07-29T18:53:41;23.30;99.90
1165;DHT22;571;50.930;6.926;2023-07-29T19:02:52;23.10;99.90
1165;DHT22;571;50.930;6.926;2023-07-29T19:05:39;23.10;99.90
1165;DHT22;571;50.930;6.926;2023-07-29T19:24:55;22.70;99.90
1165;DHT22;571;50.930;6.926;2023-07-29T19:31:24;22.60;99.90
1165;DHT22;571;50.930;6.926;2023-07-29T19:34:16;22.50;99.90
1165;DHT22;571;50.930;6.926;2023-07-29T19:36:57;22.50;99.90
1165;DHT22;571;50.930;6.926;2023-07-29T19:43:31;22.40;99.90
1165;DHT22;571;50.930;6.926;2023-07-29T20:23:24;21.80;99.90
1165;DHT22;571;50.930;6.926;2023-07-29T20:26:16;21.80;99.90
1165;DHT22;571;50.930;6.926;2023-07-29T20:29:27;21.80;99.90
1165;DHT22;571;50.930;6.926;2023-07-29T20:31:57;21.80;99.90
1165;DHT22;571;50.930;6.926;2023-07-29T20:34:53;21.80;99.90
1165;DHT22;571;50.930;6.926;2023-07-29T20:44:41;21.60;99.90
